Time;durP1;ratioP1;P1;durP2;ratioP2;P2;SDS_P1;SDS_P2;PMS_P1;PMS_P2;Temp;Humidity;BMP_temperature;BMP_pressure;BME280_temperature;BME280_humidity;BME280_pressure;Samples;Min_cycle;Max_cycle;Signal;HPM_P1;HPM_P2
2022/01/17 00:01:10;;;;;;;;;;;;;;;20.43;45.18;101444.00;5035043;28;4294;-66
2022/01/17 00:03:36;;;;;;;;;;;;;;;20.43;45.30;101446.88;5032966;28;4233;-66
2022/01/17 00:06:02;;;;;;;;;;;;;;;20.46;45.18;101451.34;5033350;28;4197;-66
2022/01/17 00:08:29;;;;;;;;;;;;;;;20.52;45.13;101439.41;5035123;28;4201;-66
2022/01/17 00:10:55;;;;;;;;;;;;;;;20.47;44.95;101447.09;5031197;28;4274;-66
2022/01/17 00:13:27;;;;;;;;;;;;;;;20.47;45.28;101432.69;5034394;28;4191;-65
2022/01/17 00:16:41;;;;;;;;;;;;;;;20.40;45.51;101433.75;5029185;28;4299;-67
2022/01/17 00:21:13;;;;;;;;;;;;;;;20.42;45.09;101436.00;5032941;28;4198;-66
2022/01/17 00:23:39;;;;;;;;;;;;;;;20.41;45.29;101423.75;5033761;28;4293;-65
2022/01/17 00:26:06;;;;;;;;;;;;;;;20.47;45.25;101417.56;5032298;28;4289;-65
2022/01/17 00:28:32;;;;;;;;;;;;;;;20.49;45.17;101401.16;5034492;28;4023;-66
2022/01/17 00:31:04;;;;;;;;;;;;;;;20.48;45.24;101416.94;5031676;28;4445;-65
2022/01/17 00:33:31;;;;;;;;;;;;;;;20.48;45.34;101419.81;5032601;28;4226;-66
2022/01/17 00:35:58;;;;;;;;;;;;;;;20.41;45.45;101411.47;5030483;28;5282;-66
2022/01/17 00:38:24;;;;;;;;;;;;;;;20.42;45.39;101419.47;5035071;28;5269;-66
2022/01/17 00:40:50;;;;;;;;;;;;;;;20.46;45.25;101416.84;5029789;28;4235;-66
2022/01/17 00:43:16;;;;;;;;;;;;;;;20.39;45.33;101420.75;5033472;28;4182;-65
2022/01/17 00:45:44;;;;;;;;;;;;;;;20.44;45.34;101416.72;5031965;28;5382;-68
2022/01/17 00:48:11;;;;;;;;;;;;;;;20.40;45.40;101404.97;5034993;28;4215;-68
2022/01/17 00:50:38;;;;;;;;;;;;;;;20.46;45.14;101402.44;5032186;28;4213;-68
2022/01/17 00:53:05;;;;;;;;;;;;;;;20.46;45.26;101408.19;5033639;28;4211;-67
2022/01/17 00:55:31;;;;;;;;;;;;;;;20.54;44.97;101401.41;5032338;28;5266;-67
2022/01/17 00:57:58;;;;;;;;;;;;;;;20.48;44.90;101393.94;5031489;28;6398;-68
2022/01/17 01:00:24;;;;;;;;;;;;;;;20.51;44.96;101395.53;5030204;28;4207;-66
2022/01/17 01:02:50;;;;;;;;;;;;;;;20.48;45.20;101405.44;5035963;28;4285;-67
2022/01/17 01:05:17;;;;;;;;;;;;;;;20.47;45.07;101385.94;5032653;28;4268;-68
2022/01/17 01:07:43;;;;;;;;;;;;;;;20.43;45.38;101383.59;5033983;28;5345;-67
2022/01/17 01:10:10;;;;;;;;;;;;;;;20.40;45.26;101376.22;5034316;28;4247;-68
2022/01/17 01:12:40;;;;;;;;;;;;;;;20.42;45.43;101367.69;5033123;28;4479;-68
2022/01/17 01:15:11;;;;;;;;;;;;;;;20.40;45.44;101367.59;5032579;28;4380;-69
2022/01/17 01:17:49;;;;;;;;;;;;;;;20.42;45.38;101364.81;5034340;28;4250;-68
2022/01/17 01:20:48;;;;;;;;;;;;;;;20.40;45.30;101376.22;5032567;28;4145;-68
2022/01/17 01:28:39;;;;;;;;;;;;;;;20.42;45.20;101387.84;5032455;28;4392;-68
2022/01/17 01:31:15;;;;;;;;;;;;;;;20.42;44.99;101384.97;5033047;28;4248;-68
2022/01/17 01:33:48;;;;;;;;;;;;;;;20.46;45.13;101384.44;5016624;28;4923;-68
2022/01/17 01:36:21;;;;;;;;;;;;;;;20.51;45.05;101384.03;5017519;28;4167;-69
2022/01/17 01:38:47;;;;;;;;;;;;;;;20.49;44.85;101377.41;5025498;28;4550;-68
2022/01/17 01:41:14;;;;;;;;;;;;;;;20.50;45.11;101381.78;5027147;28;4273;-68
2022/01/17 01:43:40;;;;;;;;;;;;;;;20.45;45.00;101389.44;5032953;28;4201;-67
2022/01/17 01:46:06;;;;;;;;;;;;;;;20.47;44.83;101386.66;5033163;28;4215;-68
2022/01/17 01:48:34;;;;;;;;;;;;;;;20.44;45.01;101393.72;5031490;28;4036;-68
2022/01/17 01:51:00;;;;;;;;;;;;;;;20.38;45.19;101390.47;5031043;28;5435;-68
2022/01/17 01:53:27;;;;;;;;;;;;;;;20.41;44.99;101403.63;5037602;28;4296;-68
2022/01/17 01:55:54;;;;;;;;;;;;;;;20.46;44.76;101384.44;5035186;28;4366;-68
2022/01/17 01:58:21;;;;;;;;;;;;;;;20.46;45.02;101385.19;5035074;28;4185;-68
2022/01/17 02:00:47;;;;;;;;;;;;;;;20.43;45.01;101397.97;5034675;28;5418;-67
2022/01/17 02:03:13;;;;;;;;;;;;;;;20.37;44.92;101397.63;5037562;28;5306;-69
2022/01/17 02:05:40;;;;;;;;;;;;;;;20.41;45.11;101389.22;5036262;28;4179;-68
2022/01/17 02:08:10;;;;;;;;;;;;;;;20.38;45.05;101396.25;5034468;28;4228;-68
2022/01/17 02:10:36;;;;;;;;;;;;;;;20.46;44.97;101393.81;5035448;28;4648;-68
2022/01/17 02:13:02;;;;;;;;;;;;;;;20.38;44.91;101387.59;5035063;28;4181;-68
2022/01/17 02:15:29;;;;;;;;;;;;;;;20.37;45.06;101400.50;5036273;28;4317;-68
2022/01/17 02:17:57;;;;;;;;;;;;;;;20.40;44.87;101401.38;5033106;28;4374;-68
2022/01/17 02:20:34;;;;;;;;;;;;;;;20.39;44.81;101397.75;5033569;28;4243;-68
2022/01/17 02:23:04;;;;;;;;;;;;;;;20.45;44.68;101385.81;5036654;28;4245;-67
2022/01/17 02:25:30;;;;;;;;;;;;;;;20.46;44.71;101353.53;5033845;28;4059;-68
2022/01/17 02:27:57;;;;;;;;;;;;;;;20.43;44.93;101351.94;5033105;28;4285;-68
2022/01/17 02:30:26;;;;;;;;;;;;;;;20.45;44.88;101349.16;5029372;28;4327;-68
2022/01/17 02:32:52;;;;;;;;;;;;;;;20.46;44.73;101335.53;5037025;28;4211;-67
2022/01/17 02:35:19;;;;;;;;;;;;;;;20.38;44.57;101326.47;5037958;28;4146;-68
2022/01/17 02:37:46;;;;;;;;;;;;;;;20.41;44.91;101320.19;5035324;28;4251;-68
2022/01/17 02:40:13;;;;;;;;;;;;;;;20.47;44.80;101309.00;5037048;28;4105;-68
2022/01/17 02:42:39;;;;;;;;;;;;;;;20.36;44.90;101301.22;5034083;28;4390;-67
2022/01/17 02:45:19;;;;;;;;;;;;;;;20.34;44.87;101304.00;5032517;28;4162;-68
2022/01/17 02:47:45;;;;;;;;;;;;;;;20.39;44.83;101302.81;5033992;28;4159;-68
2022/01/17 02:50:12;;;;;;;;;;;;;;;20.36;45.03;101291.84;5033521;28;5741;-68
2022/01/17 02:52:38;;;;;;;;;;;;;;;20.36;45.02;101277.47;5035621;28;4217;-68
2022/01/17 02:55:05;;;;;;;;;;;;;;;20.41;44.80;101274.16;5036654;28;4255;-68
2022/01/17 02:57:31;;;;;;;;;;;;;;;20.40;44.85;101269.78;5028257;28;4287;-68
2022/01/17 02:59:58;;;;;;;;;;;;;;;20.37;44.88;101279.72;5032661;28;5397;-68
2022/01/17 03:02:24;;;;;;;;;;;;;;;20.35;44.81;101282.47;5031577;28;4394;-68
2022/01/17 03:04:50;;;;;;;;;;;;;;;20.54;44.50;101287.03;5033111;28;4193;-68
2022/01/17 03:07:17;;;;;;;;;;;;;;;20.43;44.61;101273.50;5035059;28;4318;-68
2022/01/17 03:09:57;;;;;;;;;;;;;;;20.44;44.67;101267.13;5029694;28;5355;-69
2022/01/17 03:12:23;;;;;;;;;;;;;;;20.41;44.55;101267.66;5031889;28;4081;-68
2022/01/17 03:14:50;;;;;;;;;;;;;;;20.37;44.67;101265.31;5032645;28;5086;-68
2022/01/17 03:17:16;;;;;;;;;;;;;;;20.42;44.79;101286.41;5034590;28;4188;-68
2022/01/17 03:19:42;;;;;;;;;;;;;;;20.41;44.52;101267.66;5032275;28;4243;-68
2022/01/17 03:22:09;;;;;;;;;;;;;;;20.40;44.42;101283.44;5033160;28;4230;-68
2022/01/17 03:24:35;;;;;;;;;;;;;;;20.40;44.35;101287.03;5031383;28;4326;-68
2022/01/17 03:27:01;;;;;;;;;;;;;;;20.30;44.51;101286.53;5034835;28;5766;-68
2022/01/17 03:29:28;;;;;;;;;;;;;;;20.31;44.58;101265.00;5034151;28;5233;-68
2022/01/17 03:31:54;;;;;;;;;;;;;;;20.35;44.41;101276.72;5033411;28;4545;-68
2022/01/17 03:34:20;;;;;;;;;;;;;;;20.36;44.37;101265.94;5036086;28;4251;-69
2022/01/17 03:36:47;;;;;;;;;;;;;;;20.33;44.38;101273.72;5033322;28;5472;-68
2022/01/17 03:39:13;;;;;;;;;;;;;;;20.33;44.51;101270.13;5033816;28;4226;-68
2022/01/17 03:41:40;;;;;;;;;;;;;;;20.35;44.58;101270.97;5032519;28;4229;-68
2022/01/17 03:44:07;;;;;;;;;;;;;;;20.39;44.40;101268.31;5033497;28;4117;-67
2022/01/17 03:46:34;;;;;;;;;;;;;;;20.39;44.59;101265.44;5032836;28;4188;-67
2022/01/17 03:49:00;;;;;;;;;;;;;;;20.48;44.34;101261.59;5029712;28;4182;-68
2022/01/17 03:51:27;;;;;;;;;;;;;;;20.43;44.29;101254.16;5032220;28;4184;-68
2022/01/17 03:53:53;;;;;;;;;;;;;;;20.42;44.45;101252.63;5031317;28;4303;-68
2022/01/17 03:56:19;;;;;;;;;;;;;;;20.40;44.43;101243.91;5032811;28;4256;-68
2022/01/17 03:58:46;;;;;;;;;;;;;;;20.38;44.48;101238.03;5027076;28;6038;-68
2022/01/17 04:01:13;;;;;;;;;;;;;;;20.46;44.60;101263.63;5032552;28;4246;-68
2022/01/17 04:03:39;;;;;;;;;;;;;;;20.43;44.42;101262.78;5029168;28;5278;-67
2022/01/17 04:06:06;;;;;;;;;;;;;;;20.52;44.54;101249.53;5034144;28;4309;-68
2022/01/17 04:08:34;;;;;;;;;;;;;;;20.43;44.71;101267.75;5033336;28;4612;-68
2022/01/17 04:11:00;;;;;;;;;;;;;;;20.43;44.46;101270.63;5029108;28;7353;-68
2022/01/17 04:13:27;;;;;;;;;;;;;;;20.48;44.47;101270.22;5033541;28;5277;-68
2022/01/17 04:15:53;;;;;;;;;;;;;;;20.35;44.78;101285.34;5034567;28;4282;-67
2022/01/17 04:18:23;;;;;;;;;;;;;;;20.43;44.59;101277.16;5030788;28;4240;-68
2022/01/17 04:20:49;;;;;;;;;;;;;;;20.38;44.89;101280.44;5030891;28;4333;-68
2022/01/17 04:23:17;;;;;;;;;;;;;;;20.39;44.65;101268.31;5030906;28;4230;-68
2022/01/17 04:25:43;;;;;;;;;;;;;;;20.39;44.61;101247.44;5031322;28;4219;-68
2022/01/17 04:28:10;;;;;;;;;;;;;;;20.43;44.86;101271.41;5030100;28;5424;-68
2022/01/17 04:30:37;;;;;;;;;;;;;;;20.37;44.77;101265.31;5029854;28;4578;-68
2022/01/17 04:33:03;;;;;;;;;;;;;;;20.32;44.68;101272.25;5014451;28;4296;-68
2022/01/17 04:35:30;;;;;;;;;;;;;;;20.39;44.54;101276.94;5032686;28;4918;-68
2022/01/17 04:38:03;;;;;;;;;;;;;;;20.36;44.58;101243.69;5032952;28;4217;-68
2022/01/17 04:40:37;;;;;;;;;;;;;;;20.33;44.72;101259.34;5032811;28;5326;-68
2022/01/17 04:43:04;;;;;;;;;;;;;;;20.33;44.70;101256.47;5027936;28;4327;-68
2022/01/17 04:45:31;;;;;;;;;;;;;;;20.35;44.52;101264.47;5029393;28;4442;-68
2022/01/17 04:47:57;;;;;;;;;;;;;;;20.37;44.59;101250.94;5032082;28;4300;-68
2022/01/17 04:50:24;;;;;;;;;;;;;;;20.34;44.61;101260.84;5030488;28;4170;-67
2022/01/17 04:52:52;;;;;;;;;;;;;;;20.33;44.59;101247.09;5034819;28;4203;-69
2022/01/17 04:55:18;;;;;;;;;;;;;;;20.38;44.58;101243.78;5027820;28;5106;-68
2022/01/17 04:57:45;;;;;;;;;;;;;;;20.42;44.46;101252.63;5029321;28;4283;-67
2022/01/17 05:00:12;;;;;;;;;;;;;;;20.44;44.63;101244.13;5032366;28;4233;-67
2022/01/17 05:02:38;;;;;;;;;;;;;;;20.45;44.63;101236.97;5025933;28;4583;-68
2022/01/17 05:05:05;;;;;;;;;;;;;;;20.44;44.71;101232.59;5029913;28;4095;-68
2022/01/17 05:07:32;;;;;;;;;;;;;;;20.45;44.71;101222.59;5031687;28;4240;-68
2022/01/17 05:09:58;;;;;;;;;;;;;;;20.49;44.69;101225.69;5024154;28;6409;-67
2022/01/17 05:12:25;;;;;;;;;;;;;;;20.39;44.81;101219.41;5034058;28;5503;-67
2022/01/17 05:14:53;;;;;;;;;;;;;;;20.36;44.82;101197.66;5028181;28;4340;-68
2022/01/17 05:17:35;;;;;;;;;;;;;;;20.41;44.69;101198.63;5030429;28;4372;-67
2022/01/17 05:20:01;;;;;;;;;;;;;;;20.42;44.72;101212.38;5028556;28;4247;-68
2022/01/17 05:22:30;;;;;;;;;;;;;;;20.34;44.86;101220.59;5023331;28;5138;-68
2022/01/17 05:24:57;;;;;;;;;;;;;;;20.48;44.48;101212.69;5029560;28;4522;-67
2022/01/17 05:27:24;;;;;;;;;;;;;;;20.40;44.68;101212.25;5021984;28;4178;-68
2022/01/17 05:29:50;;;;;;;;;;;;;;;20.46;44.67;101208.97;5027735;28;4243;-68
2022/01/17 05:32:16;;;;;;;;;;;;;;;20.40;44.54;101200.75;5031184;28;4190;-68
2022/01/17 05:34:43;;;;;;;;;;;;;;;20.40;44.69;101211.53;5033887;28;4187;-69
2022/01/17 05:37:10;;;;;;;;;;;;;;;20.44;44.37;101206.72;5034395;28;4177;-68
2022/01/17 05:39:36;;;;;;;;;;;;;;;20.48;44.62;101198.31;5029851;28;5168;-68
2022/01/17 05:42:03;;;;;;;;;;;;;;;20.47;44.57;101196.81;5031307;28;5394;-67
2022/01/17 05:44:29;;;;;;;;;;;;;;;20.51;44.57;101208.53;5031593;28;4190;-68
2022/01/17 05:46:56;;;;;;;;;;;;;;;20.49;44.67;101207.69;5029796;28;4069;-67
2022/01/17 05:49:22;;;;;;;;;;;;;;;20.54;44.73;101217.25;5026221;28;5283;-67
2022/01/17 05:51:48;;;;;;;;;;;;;;;20.54;44.72;101208.63;5031346;28;4195;-63
2022/01/17 05:54:16;;;;;;;;;;;;;;;20.63;44.86;101202.66;5015627;28;5274;-64
2022/01/17 05:56:42;;;;;;;;;;;;;;;20.61;45.02;101210.44;5025813;28;5329;-65
2022/01/17 05:59:09;;;;;;;;;;;;;;;20.57;45.84;101196.63;5032235;28;4342;-67
2022/01/17 06:01:39;;;;;;;;;;;;;;;20.51;45.96;101216.41;5033936;28;4286;-67
2022/01/17 06:04:05;;;;;;;;;;;;;;;20.53;46.10;101210.78;5032314;28;4242;-68
2022/01/17 06:06:32;;;;;;;;;;;;;;;20.49;46.43;101188.28;5029830;28;5327;-67
2022/01/17 06:08:58;;;;;;;;;;;;;;;20.50;46.46;101195.53;5032592;28;4353;-67
2022/01/17 06:11:24;;;;;;;;;;;;;;;20.51;46.47;101179.00;5034223;28;5433;-67
2022/01/17 06:13:51;;;;;;;;;;;;;;;20.47;46.73;101193.94;5027411;28;4187;-68
2022/01/17 06:16:17;;;;;;;;;;;;;;;20.50;46.61;101166.00;5030606;28;4220;-68
2022/01/17 06:18:44;;;;;;;;;;;;;;;20.48;46.70;101191.81;5033068;28;4223;-67
2022/01/17 06:21:10;;;;;;;;;;;;;;;20.49;46.77;101168.13;5034031;28;4246;-67
2022/01/17 06:23:36;;;;;;;;;;;;;;;20.48;46.88;101191.81;5028696;28;5437;-67
2022/01/17 06:26:03;;;;;;;;;;;;;;;20.56;46.94;101188.59;5031432;28;5129;-65
2022/01/17 06:28:29;;;;;;;;;;;;;;;20.60;46.99;101203.97;5028066;28;4344;-65
2022/01/17 06:30:55;;;;;;;;;;;;;;;20.56;47.25;101197.22;5031025;28;4197;-64
2022/01/17 06:33:22;;;;;;;;;;;;;;;20.59;46.85;101193.09;5034086;28;4383;-66
2022/01/17 06:35:48;;;;;;;;;;;;;;;20.58;46.93;101177.97;5033223;28;5202;-63
2022/01/17 06:38:14;;;;;;;;;;;;;;;20.57;47.14;101181.47;5028232;28;4174;-65
2022/01/17 06:43:53;;;;;;;;;;;;;;;19.90;46.74;101141.34;5017803;28;4205;-69
2022/01/17 06:46:20;;;;;;;;;;;;;;;20.13;46.56;101135.38;5033549;28;5155;-62
2022/01/17 06:48:46;;;;;;;;;;;;;;;20.28;45.92;101116.75;5032200;28;4239;-64
2022/01/17 06:51:14;;;;;;;;;;;;;;;20.26;45.89;101123.13;5027756;28;5189;-63
2022/01/17 06:53:41;;;;;;;;;;;;;;;20.36;45.72;101145.16;5032578;28;4592;-64
2022/01/17 06:56:07;;;;;;;;;;;;;;;19.94;45.51;101148.06;5033766;28;4224;-63
2022/01/17 06:58:35;;;;;;;;;;;;;;;19.95;46.26;101148.78;5034120;28;4275;-72
2022/01/17 07:01:02;;;;;;;;;;;;;;;19.81;46.41;101163.16;5036383;28;4166;-72
2022/01/17 07:03:29;;;;;;;;;;;;;;;19.87;45.99;101161.34;5033721;28;4780;-63
2022/01/17 07:05:55;;;;;;;;;;;;;;;19.87;46.09;101183.63;5033730;28;4356;-69
2022/01/17 07:08:22;;;;;;;;;;;;;;;19.70;46.62;101175.50;5035522;28;4266;-72
2022/01/17 07:10:48;;;;;;;;;;;;;;;19.64;46.81;101179.50;5034184;28;4250;-70
2022/01/17 07:13:14;;;;;;;;;;;;;;;19.75;46.98;101200.22;5034595;28;4206;-73
2022/01/17 07:15:41;;;;;;;;;;;;;;;19.70;46.91;101192.72;5035579;28;5141;-72
2022/01/17 07:18:07;;;;;;;;;;;;;;;19.83;46.93;101174.78;5036246;28;4333;-71
2022/01/17 07:20:33;;;;;;;;;;;;;;;19.60;46.79;101164.19;5034268;28;4210;-70
2022/01/17 07:23:00;;;;;;;;;;;;;;;19.74;46.97;101155.59;5033124;28;4212;-69
2022/01/17 07:25:26;;;;;;;;;;;;;;;19.88;46.80;101144.84;5033228;28;4027;-68
2022/01/17 07:27:55;;;;;;;;;;;;;;;19.57;47.22;101157.56;5034534;28;4211;-74
2022/01/17 07:30:22;;;;;;;;;;;;;;;19.64;47.45;101133.53;5035862;28;4277;-73
2022/01/17 07:32:48;;;;;;;;;;;;;;;19.62;47.76;101124.81;5033306;28;4216;-71
2022/01/17 07:35:14;;;;;;;;;;;;;;;19.78;47.48;101106.97;5036824;28;4545;-68
2022/01/17 07:37:41;;;;;;;;;;;;;;;19.69;47.72;101108.66;5031908;28;5355;-69
2022/01/17 07:40:07;;;;;;;;;;;;;;;19.33;48.33;101107.41;5033927;28;4706;-69
2022/01/17 07:42:34;;;;;;;;;;;;;;;19.57;47.70;101110.88;5033485;28;4292;-69
2022/01/17 07:45:09;;;;;;;;;;;;;;;19.50;47.77;101124.16;5032465;28;5175;-68
2022/01/17 07:50:12;;;;;;;;;;;;;;;19.66;47.72;101125.03;5033553;28;4156;-68
2022/01/17 07:52:38;;;;;;;;;;;;;;;19.66;47.58;101133.66;5032911;28;4770;-69
2022/01/17 07:55:05;;;;;;;;;;;;;;;19.71;47.76;101122.41;5032462;28;4239;-69
2022/01/17 07:57:31;;;;;;;;;;;;;;;19.57;47.74;101123.09;5035861;28;4238;-69
2022/01/17 07:59:58;;;;;;;;;;;;;;;19.65;47.90;101117.81;5036956;28;5319;-69
2022/01/17 08:02:29;;;;;;;;;;;;;;;19.75;47.32;101126.25;5034808;28;6419;-69
2022/01/17 08:04:56;;;;;;;;;;;;;;;19.81;47.19;101125.81;5034614;28;4192;-69
2022/01/17 08:07:22;;;;;;;;;;;;;;;19.84;46.87;101121.69;5035619;28;4189;-70
2022/01/17 08:09:55;;;;;;;;;;;;;;;19.91;46.86;101109.09;5035910;28;5501;-67
2022/01/17 08:12:21;;;;;;;;;;;;;;;19.83;47.00;101120.91;5035532;28;4184;-68
2022/01/17 08:14:47;;;;;;;;;;;;;;;19.52;46.87;101109.91;5035012;28;4208;-69
2022/01/17 08:17:14;;;;;;;;;;;;;;;19.80;46.62;101116.44;5034790;28;5543;-68
2022/01/17 08:19:41;;;;;;;;;;;;;;;19.70;46.34;101113.03;5034532;28;4347;-69
2022/01/17 08:22:08;;;;;;;;;;;;;;;19.53;46.24;101094.16;5033397;28;4157;-69
2022/01/17 08:24:34;;;;;;;;;;;;;;;19.88;45.79;101075.88;5034335;28;4200;-71
2022/01/17 08:27:00;;;;;;;;;;;;;;;19.83;45.76;101057.69;5033946;28;4154;-69
2022/01/17 08:29:28;;;;;;;;;;;;;;;19.73;45.92;101054.28;5034448;28;5159;-68
2022/01/17 08:31:54;;;;;;;;;;;;;;;19.68;45.37;101069.81;5034256;28;4178;-72
2022/01/17 08:34:21;;;;;;;;;;;;;;;19.44;46.09;101075.00;5031400;28;4072;-67
2022/01/17 08:36:47;;;;;;;;;;;;;;;19.51;46.16;101079.69;5034334;28;6490;-72
2022/01/17 08:39:14;;;;;;;;;;;;;;;19.61;45.58;101088.84;5032026;28;4157;-73
2022/01/17 08:41:42;;;;;;;;;;;;;;;19.72;45.89;101070.03;5034842;28;4309;-73
2022/01/17 08:44:09;;;;;;;;;;;;;;;19.86;45.97;101093.03;5031917;28;4160;-73
2022/01/17 08:46:35;;;;;;;;;;;;;;;19.75;45.91;101103.25;5033883;28;4232;-73
2022/01/17 08:49:02;;;;;;;;;;;;;;;19.87;46.13;101115.38;5035204;28;4286;-72
2022/01/17 08:51:28;;;;;;;;;;;;;;;19.56;46.43;101121.63;5034090;28;4178;-73
2022/01/17 08:53:55;;;;;;;;;;;;;;;19.90;45.87;101107.59;5030289;28;4237;-73
2022/01/17 08:56:21;;;;;;;;;;;;;;;19.77;46.57;101102.59;5032874;28;5539;-72
2022/01/17 08:58:47;;;;;;;;;;;;;;;19.38;47.13;101118.50;5032667;28;4153;-68
2022/01/17 09:01:14;;;;;;;;;;;;;;;19.42;47.12;101117.97;5030753;28;4233;-69
2022/01/17 09:03:41;;;;;;;;;;;;;;;19.66;46.79;101119.28;5034120;28;4118;-73
2022/01/17 09:06:07;;;;;;;;;;;;;;;19.37;47.16;101111.25;5017566;28;4218;-74
2022/01/17 09:08:33;;;;;;;;;;;;;;;19.57;47.29;101093.63;5032693;28;4199;-72
2022/01/17 09:11:00;;;;;;;;;;;;;;;19.83;46.77;101091.44;5038238;28;4315;-69
2022/01/17 09:13:26;;;;;;;;;;;;;;;19.49;47.42;101076.69;5027644;28;4023;-68
2022/01/17 09:15:53;;;;;;;;;;;;;;;19.76;47.09;101081.00;5030220;28;4181;-66
2022/01/17 09:18:20;;;;;;;;;;;;;;;19.64;47.56;101089.72;5032727;28;4218;-71
2022/01/17 09:20:46;;;;;;;;;;;;;;;19.16;48.91;101100.78;5035702;28;4248;-74
2022/01/17 09:23:13;;;;;;;;;;;;;;;19.16;49.06;101132.38;5034454;28;5434;-65
2022/01/17 09:25:39;;;;;;;;;;;;;;;18.81;49.58;101144.78;5032731;28;4257;-74
2022/01/17 09:28:06;;;;;;;;;;;;;;;19.28;48.75;101120.06;5032205;28;4247;-67
2022/01/17 09:30:32;;;;;;;;;;;;;;;19.82;47.92;101118.69;5033973;28;4233;-65
2022/01/17 09:32:58;;;;;;;;;;;;;;;19.55;48.29;101137.34;5029859;28;5480;-72
2022/01/17 09:35:25;;;;;;;;;;;;;;;19.74;48.11;101112.50;5035545;28;4330;-66
2022/01/17 09:37:51;;;;;;;;;;;;;;;19.73;48.56;101128.25;5032698;28;4175;-65
2022/01/17 09:40:19;;;;;;;;;;;;;;;19.75;47.64;101142.75;5032546;28;4106;-65
2022/01/17 09:42:45;;;;;;;;;;;;;;;19.84;47.74;101130.28;5029199;28;5359;-65
2022/01/17 09:45:12;;;;;;;;;;;;;;;19.86;47.81;101154.13;5033907;28;4158;-66
2022/01/17 09:47:40;;;;;;;;;;;;;;;19.86;47.63;101180.00;5032170;28;5251;-67
2022/01/17 09:50:09;;;;;;;;;;;;;;;19.77;48.05;101168.69;5034516;28;4273;-67
2022/01/17 09:52:35;;;;;;;;;;;;;;;19.79;47.98;101151.56;5030389;28;4439;-67
2022/01/17 09:55:05;;;;;;;;;;;;;;;19.84;47.77;101164.78;5033228;28;4162;-68
2022/01/17 09:57:32;;;;;;;;;;;;;;;19.62;47.94;101184.41;5035327;28;4068;-67
2022/01/17 09:59:58;;;;;;;;;;;;;;;19.75;47.43;101206.69;5028827;28;4143;-66
2022/01/17 10:02:24;;;;;;;;;;;;;;;19.35;48.29;101214.53;5028616;28;4331;-71
2022/01/17 10:04:52;;;;;;;;;;;;;;;19.09;49.08;101233.88;5030973;28;4375;-71
2022/01/17 10:07:18;;;;;;;;;;;;;;;19.02;49.03;101300.91;5030955;28;4178;-67
2022/01/17 10:09:52;;;;;;;;;;;;;;;18.87;49.59;101324.41;5016487;28;4204;-71
2022/01/17 10:12:19;;;;;;;;;;;;;;;18.63;50.29;101333.75;5034787;28;4005;-71
2022/01/17 10:14:58;;;;;;;;;;;;;;;18.73;50.21;101339.34;5025694;28;4052;-71
2022/01/17 10:17:40;;;;;;;;;;;;;;;19.24;49.33;101348.16;5034032;28;3938;-70
2022/01/17 10:20:13;;;;;;;;;;;;;;;19.21;50.50;101346.53;5010631;28;5237;-70
2022/01/17 10:22:50;;;;;;;;;;;;;;;18.95;50.63;101331.38;5032143;28;4445;-68
2022/01/17 10:25:29;;;;;;;;;;;;;;;19.25;50.12;101341.03;5032431;28;4294;-69
2022/01/17 10:28:24;;;;;;;;;;;;;;;19.31;49.40;101337.03;5034907;28;4179;-70
2022/01/17 10:36:28;;;;;;;;;;;;;;;19.73;48.38;101358.88;4984058;28;4281;-72
2022/01/17 10:39:04;;;;;;;;;;;;;;;19.72;48.86;101353.75;5020242;28;4195;-72
2022/01/17 10:41:32;;;;;;;;;;;;;;;19.75;49.05;101373.34;5035931;28;4210;-71
2022/01/17 10:43:58;;;;;;;;;;;;;;;19.56;49.16;101376.53;5030752;28;4093;-71
2022/01/17 10:46:25;;;;;;;;;;;;;;;19.93;48.77;101376.53;5034629;28;4108;-71
2022/01/17 10:48:56;;;;;;;;;;;;;;;19.64;49.35;101389.22;5038362;28;4102;-72
2022/01/17 10:51:28;;;;;;;;;;;;;;;20.11;48.31;101378.91;5021275;28;4106;-71
2022/01/17 10:53:58;;;;;;;;;;;;;;;19.60;48.91;101391.13;4999417;28;4195;-70
2022/01/17 10:56:24;;;;;;;;;;;;;;;19.81;49.10;101395.94;5034444;28;4290;-69
2022/01/17 10:59:03;;;;;;;;;;;;;;;19.88;49.21;101397.78;5034973;28;4357;-69
2022/01/17 11:01:36;;;;;;;;;;;;;;;19.82;49.27;101406.06;5037650;28;4249;-72
2022/01/17 11:04:03;;;;;;;;;;;;;;;19.95;48.60;101408.25;5029626;28;4176;-68
2022/01/17 11:06:30;;;;;;;;;;;;;;;20.07;48.55;101385.94;5035630;28;4483;-69
2022/01/17 11:09:04;;;;;;;;;;;;;;;19.94;49.96;101398.13;5035724;28;5332;-67
2022/01/17 11:11:30;;;;;;;;;;;;;;;20.11;49.72;101396.16;5032414;28;5248;-80
2022/01/17 11:13:59;;;;;;;;;;;;;;;20.31;48.92;101417.41;5027578;28;4205;-80
2022/01/17 11:16:25;;;;;;;;;;;;;;;20.36;48.33;101427.75;5037285;28;4223;-76
2022/01/17 11:18:58;;;;;;;;;;;;;;;20.29;48.64;101452.59;5032898;28;4199;-71
2022/01/17 11:21:25;;;;;;;;;;;;;;;20.39;48.40;101448.78;5036731;28;5331;-73
2022/01/17 11:23:53;;;;;;;;;;;;;;;20.18;48.22;101459.16;5028789;28;5909;-75
2022/01/17 11:26:19;;;;;;;;;;;;;;;19.40;47.17;101468.22;5022241;28;4141;-73
2022/01/17 11:28:47;;;;;;;;;;;;;;;19.50;49.65;101473.84;5030381;28;4237;-69
2022/01/17 11:31:15;;;;;;;;;;;;;;;19.67;49.53;101465.53;5035357;28;4251;-71
2022/01/17 11:33:42;;;;;;;;;;;;;;;20.09;48.41;101483.81;5027895;28;4133;-71
2022/01/17 11:36:08;;;;;;;;;;;;;;;19.94;48.99;101498.72;5039224;28;5214;-75
2022/01/17 11:38:35;;;;;;;;;;;;;;;20.08;48.61;101496.69;5033396;28;4126;-77
2022/01/17 11:41:02;;;;;;;;;;;;;;;20.11;48.69;101483.16;5035599;28;4085;-69
2022/01/17 11:43:35;;;;;;;;;;;;;;;20.12;48.71;101501.19;5039153;28;4382;-68
2022/01/17 11:46:17;;;;;;;;;;;;;;;20.14;48.77;101509.94;5014782;28;4028;-68
2022/01/17 11:48:52;;;;;;;;;;;;;;;20.23;48.86;101527.00;5015345;28;4033;-69
2022/01/17 11:51:18;;;;;;;;;;;;;;;20.17;48.97;101540.28;5019306;28;4081;-68
2022/01/17 11:53:45;;;;;;;;;;;;;;;20.11;49.38;101575.16;5014387;28;4219;-69
2022/01/17 11:56:15;;;;;;;;;;;;;;;20.14;49.31;101567.44;5010336;28;5004;-66
2022/01/17 11:58:43;;;;;;;;;;;;;;;20.08;49.48;101590.81;5010320;28;4208;-68
2022/01/17 12:01:13;;;;;;;;;;;;;;;20.19;49.32;101586.41;5015110;28;6096;-69
2022/01/17 12:03:41;;;;;;;;;;;;;;;20.31;49.02;101595.75;5011367;28;4508;-70
2022/01/17 12:06:23;;;;;;;;;;;;;;;20.23;49.16;101615.41;5010732;28;4243;-72
2022/01/17 12:08:50;;;;;;;;;;;;;;;20.36;48.76;101606.09;5016703;28;5265;-69
2022/01/17 12:11:29;;;;;;;;;;;;;;;20.26;49.07;101612.03;5014733;28;4597;-70
2022/01/17 12:14:00;;;;;;;;;;;;;;;20.38;48.90;101620.59;5030410;28;4216;-71
2022/01/17 12:16:29;;;;;;;;;;;;;;;20.33;48.88;101624.63;5034516;28;4214;-69
2022/01/17 12:18:59;;;;;;;;;;;;;;;20.36;48.88;101640.63;5032172;28;5260;-69
2022/01/17 12:21:32;;;;;;;;;;;;;;;20.33;49.09;101636.13;5032541;28;4161;-69
2022/01/17 12:24:17;;;;;;;;;;;;;;;20.43;48.82;101636.75;5030731;28;4156;-70
2022/01/17 12:26:44;;;;;;;;;;;;;;;20.48;48.38;101629.84;5034076;28;4543;-72
2022/01/17 12:29:10;;;;;;;;;;;;;;;20.35;48.68;101627.63;5019058;28;4359;-72
2022/01/17 12:31:38;;;;;;;;;;;;;;;20.40;48.66;101637.25;5015992;28;5655;-71
2022/01/17 12:34:15;;;;;;;;;;;;;;;20.32;49.29;101639.63;5030648;28;4193;-69
2022/01/17 12:36:42;;;;;;;;;;;;;;;20.39;49.11;101650.88;5031051;28;4575;-69
2022/01/17 12:39:09;;;;;;;;;;;;;;;20.34;49.22;101654.91;5035237;28;4248;-69
2022/01/17 12:41:36;;;;;;;;;;;;;;;20.38;49.00;101643.63;5033147;28;4113;-69
2022/01/17 12:44:16;;;;;;;;;;;;;;;20.30;49.37;101638.16;5029341;28;4439;-73
2022/01/17 12:46:42;;;;;;;;;;;;;;;20.38;49.03;101632.13;5031207;28;4805;-72
2022/01/17 12:49:09;;;;;;;;;;;;;;;20.41;49.09;101639.50;5035752;28;4657;-69
2022/01/17 12:51:38;;;;;;;;;;;;;;;20.31;49.33;101644.66;5032031;28;4183;-75
2022/01/17 12:54:08;;;;;;;;;;;;;;;20.01;49.93;101661.56;5030412;28;4106;-67
2022/01/17 12:56:34;;;;;;;;;;;;;;;19.46;47.73;101670.41;5014635;28;4232;-69
2022/01/17 12:59:02;;;;;;;;;;;;;;;19.51;50.31;101676.41;5034045;28;4294;-72
2022/01/17 13:01:28;;;;;;;;;;;;;;;19.80;49.53;101667.47;5035545;28;4215;-72
2022/01/17 13:04:01;;;;;;;;;;;;;;;19.81;49.43;101680.47;5032904;28;6281;-71
2022/01/17 13:06:27;;;;;;;;;;;;;;;20.07;48.82;101679.22;5031020;28;4146;-68
2022/01/17 13:08:55;;;;;;;;;;;;;;;19.96;49.13;101668.47;5035095;28;4225;-68
2022/01/17 13:11:24;;;;;;;;;;;;;;;19.96;49.17;101685.72;5034314;28;4137;-67